createdAt,value
2019-03-19T00:00:32.848Z,101071.83
2019-03-19T00:03:02.005Z,101069.69
2019-03-19T00:05:29.120Z,101069.98
2019-03-19T00:07:56.225Z,101076.36
2019-03-19T00:10:24.340Z,101073.05
2019-03-19T00:12:51.383Z,101077.74
2019-03-19T00:15:18.767Z,101076.67
2019-03-19T00:17:46.089Z,101076.00
2019-03-19T00:20:13.354Z,101077.47
2019-03-19T00:22:40.401Z,101082.33
2019-03-19T00:25:08.640Z,101081.90
2019-03-19T00:27:35.691Z,101087.47
2019-03-19T00:30:04.454Z,101081.28
2019-03-19T00:32:32.554Z,101083.56
2019-03-19T00:35:01.417Z,101088.73
2019-03-19T00:37:28.515Z,101080.64
2019-03-19T00:39:56.793Z,101086.41
2019-03-19T00:42:23.835Z,101086.92
2019-03-19T00:44:50.890Z,101089.45
2019-03-19T00:47:18.071Z,101096.92
2019-03-19T00:49:45.085Z,101097.53
2019-03-19T00:52:12.416Z,101099.77
2019-03-19T00:54:39.520Z,101091.50
2019-03-19T00:57:06.632Z,101090.23
2019-03-19T00:59:33.702Z,101092.72
2019-03-19T01:02:00.806Z,101095.40
2019-03-19T01:04:27.852Z,101093.52
2019-03-19T01:06:55.014Z,101098.36
2019-03-19T01:09:22.557Z,101093.90
2019-03-19T01:11:51.175Z,101096.39
2019-03-19T01:14:18.365Z,101096.55
2019-03-19T01:16:46.656Z,101100.91
2019-03-19T01:19:14.114Z,101096.75
2019-03-19T01:21:41.185Z,101096.31
2019-03-19T01:24:08.258Z,101097.28
2019-03-19T01:26:35.303Z,101098.17
2019-03-19T01:29:02.448Z,101096.86
2019-03-19T01:31:29.826Z,101094.69
2019-03-19T01:33:57.341Z,101090.33
2019-03-19T01:36:24.382Z,101089.85
2019-03-19T01:38:51.607Z,101095.16
2019-03-19T01:41:18.920Z,101097.47
2019-03-19T01:43:46.008Z,101097.31
2019-03-19T01:46:14.900Z,101097.59
2019-03-19T01:48:42.268Z,101096.59
2019-03-19T01:51:09.355Z,101093.16
2019-03-19T01:53:36.446Z,101089.64
2019-03-19T01:56:05.403Z,101095.91
2019-03-19T01:58:32.452Z,101091.50
2019-03-19T02:01:00.786Z,101100.84
2019-03-19T02:03:28.254Z,101096.92
2019-03-19T02:05:55.446Z,101092.08
2019-03-19T02:08:22.562Z,101091.30
2019-03-19T02:10:50.728Z,101095.52
2019-03-19T02:13:17.761Z,101089.24
2019-03-19T02:15:44.951Z,101089.66
2019-03-19T02:18:12.529Z,101086.41
2019-03-19T02:20:39.564Z,101092.20
2019-03-19T02:23:06.640Z,101090.98
2019-03-19T02:25:34.844Z,101089.27
2019-03-19T02:28:02.226Z,101096.47
2019-03-19T02:30:29.355Z,101108.03
2019-03-19T02:32:58.229Z,101111.13
2019-03-19T02:35:25.240Z,101115.81
2019-03-19T02:37:52.379Z,101116.04
2019-03-19T02:40:20.530Z,101119.68
2019-03-19T02:42:48.572Z,101123.25
2019-03-19T02:45:15.708Z,101125.42
2019-03-19T02:47:42.776Z,101114.88
2019-03-19T02:50:09.941Z,101118.16
2019-03-19T02:52:37.134Z,101116.98
2019-03-19T02:55:05.938Z,101122.19
2019-03-19T02:57:32.999Z,101122.00
2019-03-19T03:00:00.622Z,101121.18
2019-03-19T03:02:27.854Z,101125.30
2019-03-19T03:04:55.295Z,101127.71
2019-03-19T03:07:22.410Z,101131.96
2019-03-19T03:09:51.240Z,101138.02
2019-03-19T03:12:18.318Z,101143.42
2019-03-19T03:14:46.333Z,101146.23
2019-03-19T03:17:13.563Z,101137.53
2019-03-19T03:19:40.767Z,101149.84
2019-03-19T03:22:07.829Z,101152.07
2019-03-19T03:24:34.881Z,101152.59
2019-03-19T03:27:02.524Z,101151.79
2019-03-19T03:29:32.550Z,101152.27
2019-03-19T03:31:59.654Z,101161.84
2019-03-19T03:34:27.974Z,101163.84
2019-03-19T03:36:55.103Z,101161.80
2019-03-19T03:39:22.297Z,101163.19
2019-03-19T03:41:49.646Z,101167.64
2019-03-19T03:44:17.527Z,101163.83
2019-03-19T03:46:44.632Z,101173.84
2019-03-19T03:49:12.772Z,101175.94
2019-03-19T03:51:40.294Z,101180.22
2019-03-19T03:54:07.323Z,101182.03
2019-03-19T03:56:36.340Z,101183.38
2019-03-19T03:59:03.453Z,101182.23
2019-03-19T04:01:30.720Z,101190.79
2019-03-19T04:03:57.751Z,101198.23
2019-03-19T04:06:24.870Z,101203.95
2019-03-19T04:08:51.930Z,101198.17
2019-03-19T04:11:19.506Z,101209.13
2019-03-19T04:13:46.649Z,101211.27
2019-03-19T04:16:13.690Z,101209.66
2019-03-19T04:18:41.150Z,101222.48
2019-03-19T04:21:10.239Z,101217.45
2019-03-19T04:23:37.325Z,101217.98
2019-03-19T04:26:04.360Z,101226.06
2019-03-19T04:28:31.443Z,101228.56
2019-03-19T04:30:59.679Z,101229.81
2019-03-19T04:33:26.716Z,101231.89
2019-03-19T04:35:53.816Z,101232.73
2019-03-19T04:38:20.858Z,101240.50
2019-03-19T04:40:49.603Z,101243.87
2019-03-19T04:43:17.225Z,101251.39
2019-03-19T04:45:44.280Z,101243.68
2019-03-19T04:48:11.328Z,101251.78
2019-03-19T04:50:39.745Z,101255.81
2019-03-19T04:53:06.851Z,101259.80
2019-03-19T04:55:34.084Z,101267.22
2019-03-19T04:58:01.452Z,101265.55
2019-03-19T05:00:28.528Z,101268.98
2019-03-19T05:02:55.587Z,101273.21
2019-03-19T05:05:23.976Z,101273.64
2019-03-19T05:07:51.016Z,101278.72
2019-03-19T05:10:18.261Z,101285.11
2019-03-19T05:12:46.664Z,101289.37
2019-03-19T05:15:13.764Z,101278.69
2019-03-19T05:17:41.089Z,101280.41
2019-03-19T05:20:08.921Z,101288.09
2019-03-19T05:22:36.020Z,101284.66
2019-03-19T05:25:03.466Z,101286.77
2019-03-19T05:27:37.268Z,101293.11
2019-03-19T05:29:59.581Z,101293.56
2019-03-19T05:32:26.656Z,101296.16
2019-03-19T05:34:54.878Z,101300.32
2019-03-19T05:37:21.897Z,101308.78
2019-03-19T05:39:48.937Z,101307.38
2019-03-19T05:42:16.009Z,101310.89
2019-03-19T05:44:44.336Z,101308.37
2019-03-19T05:47:11.482Z,101309.61
2019-03-19T05:49:38.613Z,101316.78
2019-03-19T05:52:05.648Z,101323.03
2019-03-19T05:54:32.768Z,101327.83
2019-03-19T05:56:59.878Z,101324.08
2019-03-19T05:59:27.369Z,101329.15
2019-03-19T06:01:54.407Z,101331.99
2019-03-19T06:04:21.501Z,101331.17
2019-03-19T06:06:48.522Z,101330.52
2019-03-19T06:09:15.564Z,101335.00
2019-03-19T06:11:42.689Z,101340.38
2019-03-19T06:14:10.741Z,101336.72
2019-03-19T06:16:37.958Z,101333.86
2019-03-19T06:19:05.034Z,101337.30
2019-03-19T06:21:32.407Z,101338.30
2019-03-19T06:23:59.977Z,101330.98
2019-03-19T06:26:27.039Z,101338.14
2019-03-19T06:28:54.079Z,101331.95
2019-03-19T06:31:21.569Z,101335.93
2019-03-19T06:33:48.641Z,101345.80
2019-03-19T06:36:15.795Z,101354.23
2019-03-19T06:38:43.541Z,101360.25
2019-03-19T06:41:10.707Z,101364.50
2019-03-19T06:43:37.750Z,101367.05
2019-03-19T06:46:04.786Z,101364.36
2019-03-19T06:48:31.896Z,101358.31
2019-03-19T06:50:59.007Z,101362.37
2019-03-19T06:53:26.382Z,101360.33
2019-03-19T06:55:54.031Z,101366.66
2019-03-19T06:58:21.125Z,101368.80
2019-03-19T07:00:51.201Z,101372.45
2019-03-19T07:03:28.932Z,101382.20
2019-03-19T07:06:25.031Z,101385.36
2019-03-19T07:08:53.481Z,101380.72
2019-03-19T07:11:20.832Z,101382.94
2019-03-19T07:13:49.179Z,101386.63
2019-03-19T07:16:16.350Z,101384.61
2019-03-19T07:18:43.768Z,101393.49
2019-03-19T07:21:12.607Z,101391.27
2019-03-19T07:23:39.723Z,101392.47
2019-03-19T07:26:07.128Z,101392.55
2019-03-19T07:28:34.190Z,101389.67
2019-03-19T07:31:01.302Z,101392.88
2019-03-19T07:33:28.841Z,101394.77
2019-03-19T07:35:56.152Z,101397.34
2019-03-19T07:38:23.266Z,101394.60
2019-03-19T07:40:50.406Z,101395.41
2019-03-19T07:43:17.481Z,101400.63
2019-03-19T07:45:46.036Z,101393.69
2019-03-19T07:48:13.520Z,101395.48
2019-03-19T07:50:40.560Z,101407.47
2019-03-19T07:53:14.234Z,101406.78
2019-03-19T07:55:41.269Z,101405.55
2019-03-19T07:58:08.296Z,101393.71
2019-03-19T08:00:35.371Z,101394.44
2019-03-19T08:03:15.655Z,101400.45
2019-03-19T08:05:34.410Z,101407.25
2019-03-19T08:08:01.459Z,101415.98
2019-03-19T08:10:28.515Z,101417.76
2019-03-19T08:12:56.181Z,101421.88
2019-03-19T08:15:23.279Z,101409.07
2019-03-19T08:17:50.930Z,101412.05
2019-03-19T08:20:17.960Z,101415.47
2019-03-19T08:22:45.055Z,101413.68
2019-03-19T08:25:12.791Z,101419.69
2019-03-19T08:27:39.867Z,101416.39
2019-03-19T08:30:09.660Z,101421.69
2019-03-19T08:32:36.709Z,101427.44
2019-03-19T08:35:07.206Z,101429.83
2019-03-19T08:37:34.260Z,101436.82
2019-03-19T08:40:01.280Z,101440.56
2019-03-19T08:42:30.698Z,101454.02
2019-03-19T08:44:58.952Z,101456.70
2019-03-19T08:47:25.984Z,101445.56
2019-03-19T08:49:53.024Z,101451.09
2019-03-19T08:52:20.230Z,101450.92
2019-03-19T08:54:47.905Z,101457.68
2019-03-19T08:57:14.969Z,101452.20
2019-03-19T08:59:42.028Z,101445.70
2019-03-19T09:02:09.126Z,101462.02
2019-03-19T09:04:37.178Z,101469.56
2019-03-19T09:07:04.231Z,101470.02
2019-03-19T09:09:31.805Z,101474.45
2019-03-19T09:11:58.964Z,101468.60
2019-03-19T09:14:26.055Z,101468.30
2019-03-19T09:16:55.844Z,101474.73
2019-03-19T09:19:22.897Z,101482.20
2019-03-19T09:21:49.946Z,101477.84
2019-03-19T09:24:17.346Z,101475.61
2019-03-19T09:26:44.396Z,101476.59
2019-03-19T09:29:16.944Z,101478.89
2019-03-19T09:31:40.723Z,101481.63
2019-03-19T09:34:07.789Z,101475.42
2019-03-19T09:36:34.898Z,101476.03
2019-03-19T09:39:02.065Z,101474.30
2019-03-19T09:41:31.239Z,101468.80
2019-03-19T09:43:58.297Z,101472.33
2019-03-19T09:46:25.686Z,101474.20
2019-03-19T09:48:52.732Z,101474.55
2019-03-19T09:51:19.857Z,101472.17
2019-03-19T09:53:46.878Z,101473.94
2019-03-19T09:56:14.241Z,101474.76
2019-03-19T09:58:41.285Z,101475.89
2019-03-19T10:01:10.303Z,101468.67
2019-03-19T10:03:38.654Z,101471.70
2019-03-19T10:06:13.868Z,101471.01
2019-03-19T10:08:34.691Z,101478.35
2019-03-19T10:11:01.747Z,101468.83
2019-03-19T10:13:28.912Z,101458.27
2019-03-19T10:15:56.388Z,101457.21
2019-03-19T10:18:23.411Z,101462.11
2019-03-19T10:20:50.479Z,101457.93
2019-03-19T10:23:17.883Z,101459.31
2019-03-19T10:25:45.022Z,101455.48
2019-03-19T10:28:12.142Z,101460.30
2019-03-19T10:30:39.857Z,101456.17
2019-03-19T10:33:07.047Z,101471.16
2019-03-19T10:35:34.260Z,101483.14
2019-03-19T10:38:03.226Z,101485.00
2019-03-19T10:40:30.587Z,101488.59
2019-03-19T10:42:57.696Z,101483.20
2019-03-19T10:45:24.812Z,101482.89
2019-03-19T10:47:55.199Z,101480.61
2019-03-19T10:50:22.311Z,101486.69
2019-03-19T10:52:49.441Z,101480.28
2019-03-19T10:55:16.559Z,101469.67
2019-03-19T10:57:43.959Z,101466.17
2019-03-19T11:00:14.696Z,101467.87
2019-03-19T11:02:41.909Z,101462.55
2019-03-19T11:05:11.620Z,101460.91
2019-03-19T11:07:38.660Z,101469.12
2019-03-19T11:10:05.832Z,101475.09
2019-03-19T11:12:32.931Z,101460.71
2019-03-19T11:15:00.420Z,101465.09
2019-03-19T11:17:28.554Z,101464.00
2019-03-19T11:19:55.829Z,101467.64
2019-03-19T11:22:22.897Z,101456.45
2019-03-19T11:24:51.761Z,101460.86
2019-03-19T11:27:19.087Z,101447.55
2019-03-19T11:29:46.147Z,101458.47
2019-03-19T11:32:13.185Z,101445.95
2019-03-19T11:34:41.382Z,101449.95
2019-03-19T11:37:08.453Z,101448.52
2019-03-19T11:39:35.542Z,101452.39
2019-03-19T11:42:03.042Z,101451.69
2019-03-19T11:44:30.107Z,101455.69
2019-03-19T11:46:57.155Z,101448.06
2019-03-19T11:49:24.543Z,101454.69
2019-03-19T11:51:51.583Z,101452.52
2019-03-19T11:54:18.635Z,101446.89
2019-03-19T11:56:45.713Z,101448.45
2019-03-19T11:59:12.916Z,101449.55
2019-03-19T12:01:40.318Z,101442.27
2019-03-19T12:04:09.040Z,101449.23
2019-03-19T12:06:36.045Z,101441.44
2019-03-19T12:09:05.752Z,101446.23
2019-03-19T12:11:33.631Z,101450.49
2019-03-19T12:14:01.016Z,101452.27
2019-03-19T12:16:28.558Z,101451.68
2019-03-19T12:18:55.729Z,101451.06
2019-03-19T12:21:22.844Z,101442.25
2019-03-19T12:23:50.291Z,101430.87
2019-03-19T12:26:19.579Z,101437.34
2019-03-19T12:28:47.723Z,101442.45
2019-03-19T12:31:15.256Z,101439.67
2019-03-19T12:33:42.406Z,101435.01
2019-03-19T12:36:09.466Z,101432.38
2019-03-19T12:38:37.037Z,101432.69
2019-03-19T12:41:04.118Z,101434.94
2019-03-19T12:43:32.328Z,101428.78
2019-03-19T12:45:59.365Z,101439.89
2019-03-19T12:48:26.411Z,101435.31
2019-03-19T12:50:53.500Z,101440.11
2019-03-19T12:53:22.208Z,101430.64
2019-03-19T12:55:49.646Z,101429.10
2019-03-19T12:58:16.803Z,101423.20
2019-03-19T13:00:44.443Z,101418.86
2019-03-19T13:03:12.885Z,101425.62
2019-03-19T13:05:40.462Z,101422.64
2019-03-19T13:08:08.717Z,101426.17
2019-03-19T13:10:37.026Z,101427.86
2019-03-19T13:13:09.597Z,101428.09
2019-03-19T13:15:38.748Z,101425.72
2019-03-19T13:18:06.481Z,101413.97
2019-03-19T13:20:34.029Z,101419.10
2019-03-19T13:23:01.373Z,101406.58
2019-03-19T13:25:28.579Z,101413.41
2019-03-19T13:27:57.461Z,101416.44
2019-03-19T13:30:24.649Z,101420.32
2019-03-19T13:32:53.995Z,101411.12
2019-03-19T13:35:21.475Z,101410.66
2019-03-19T13:37:48.524Z,101409.72
2019-03-19T13:40:16.260Z,101410.72
2019-03-19T13:42:45.138Z,101411.42
2019-03-19T13:45:12.863Z,101412.77
2019-03-19T13:47:39.927Z,101408.23
2019-03-19T13:50:07.775Z,101408.72
2019-03-19T13:52:34.814Z,101406.92
2019-03-19T13:55:05.561Z,101406.04
2019-03-19T13:57:49.848Z,101407.75
2019-03-19T14:00:26.677Z,101410.41
2019-03-19T14:02:54.508Z,101412.51
2019-03-19T14:05:21.573Z,101417.36
2019-03-19T14:07:48.617Z,101411.27
2019-03-19T14:10:15.973Z,101407.46
2019-03-19T14:13:03.897Z,101409.52
2019-03-19T14:15:41.917Z,101415.48
2019-03-19T14:18:10.366Z,101416.14
2019-03-19T14:20:37.422Z,101407.80
2019-03-19T14:23:04.597Z,101404.36
2019-03-19T14:25:31.634Z,101400.45
2019-03-19T14:27:58.732Z,101401.06
2019-03-19T14:30:27.428Z,101391.41
2019-03-19T14:32:54.494Z,101392.00
2019-03-19T14:35:23.589Z,101399.91
2019-03-19T14:37:52.212Z,101400.73
2019-03-19T14:40:21.471Z,101398.83
2019-03-19T14:42:48.670Z,101398.07
2019-03-19T14:45:16.165Z,101396.44
2019-03-19T14:47:44.028Z,101389.59
2019-03-19T14:50:12.259Z,101395.14
2019-03-19T14:52:43.717Z,101393.47
2019-03-19T14:55:10.268Z,101397.59
2019-03-19T14:57:37.502Z,101401.55
2019-03-19T15:00:07.625Z,101396.65
2019-03-19T15:02:34.979Z,101397.20
2019-03-19T15:05:02.433Z,101390.40
2019-03-19T15:07:29.574Z,101390.51
2019-03-19T15:09:58.111Z,101391.84
2019-03-19T15:12:25.153Z,101390.66
2019-03-19T15:14:52.351Z,101393.81
2019-03-19T15:17:22.680Z,101398.90
2019-03-19T15:19:54.102Z,101400.11
2019-03-19T15:22:31.898Z,101399.22
2019-03-19T15:24:51.296Z,101394.98
2019-03-19T15:27:18.736Z,101395.34
2019-03-19T15:29:45.800Z,101408.56
2019-03-19T15:32:12.905Z,101407.30
2019-03-19T15:34:40.114Z,101401.52
2019-03-19T15:37:07.169Z,101401.45
2019-03-19T15:39:41.185Z,101399.13
2019-03-19T15:42:11.888Z,101396.41
2019-03-19T15:44:38.956Z,101401.23
2019-03-19T15:47:06.158Z,101393.55
2019-03-19T15:49:38.407Z,101405.34
2019-03-19T15:52:06.702Z,101401.61
2019-03-19T15:54:35.115Z,101402.84
2019-03-19T15:57:02.187Z,101405.61
2019-03-19T15:59:29.371Z,101396.89
2019-03-19T16:01:57.605Z,101400.45
2019-03-19T16:04:26.059Z,101401.67
2019-03-19T16:06:53.195Z,101410.56
2019-03-19T16:09:20.372Z,101411.88
2019-03-19T16:11:48.059Z,101415.55
2019-03-19T16:14:15.206Z,101430.69
2019-03-19T16:16:42.254Z,101429.33
2019-03-19T16:19:09.745Z,101434.72
2019-03-19T16:21:36.799Z,101439.92
2019-03-19T16:24:03.836Z,101433.67
2019-03-19T16:26:30.881Z,101442.45
2019-03-19T16:29:02.068Z,101444.41
2019-03-19T16:31:29.460Z,101443.96
2019-03-19T16:34:03.013Z,101448.77
2019-03-19T16:36:38.710Z,101447.23
2019-03-19T16:39:06.468Z,101445.63
2019-03-19T16:41:33.597Z,101451.77
2019-03-19T16:44:05.104Z,101446.27
2019-03-19T16:46:32.504Z,101450.83
2019-03-19T16:48:59.606Z,101456.94
2019-03-19T16:51:26.965Z,101461.76
2019-03-19T16:53:54.583Z,101471.75
2019-03-19T16:56:23.071Z,101469.50
2019-03-19T16:58:57.509Z,101465.02
2019-03-19T17:01:24.589Z,101470.01
2019-03-19T17:03:52.074Z,101466.53
2019-03-19T17:06:20.244Z,101462.95
2019-03-19T17:08:47.403Z,101480.40
2019-03-19T17:11:14.523Z,101477.03
2019-03-19T17:13:41.717Z,101486.77
2019-03-19T17:16:08.982Z,101492.05
2019-03-19T17:18:36.385Z,101497.25
2019-03-19T17:21:04.841Z,101502.91
2019-03-19T17:23:32.924Z,101509.50
2019-03-19T17:26:01.911Z,101510.23
2019-03-19T17:28:29.482Z,101513.11
2019-03-19T17:30:56.520Z,101520.53
2019-03-19T17:33:24.054Z,101513.91
2019-03-19T17:35:51.450Z,101519.89
2019-03-19T17:38:19.735Z,101522.21
2019-03-19T17:40:47.910Z,101524.59
2019-03-19T17:43:16.708Z,101533.70
2019-03-19T17:45:43.808Z,101543.44
2019-03-19T17:48:16.404Z,101537.15
2019-03-19T17:50:42.279Z,101540.09
2019-03-19T17:53:11.185Z,101543.62
2019-03-19T17:55:39.416Z,101544.38
2019-03-19T17:58:06.619Z,101559.17
2019-03-19T18:00:34.907Z,101554.91
2019-03-19T18:03:03.482Z,101563.77
2019-03-19T18:05:32.762Z,101563.43
2019-03-19T18:07:59.851Z,101564.66
2019-03-19T18:10:26.943Z,101571.33
2019-03-19T18:12:54.265Z,101579.55
2019-03-19T18:15:21.701Z,101574.42
2019-03-19T18:17:48.838Z,101579.47
2019-03-19T18:20:16.209Z,101585.08
2019-03-19T18:22:44.267Z,101592.09
2019-03-19T18:25:11.786Z,101591.23
2019-03-19T18:27:39.176Z,101590.11
2019-03-19T18:30:08.088Z,101590.27
2019-03-19T18:32:35.622Z,101593.69
2019-03-19T18:35:03.512Z,101597.81
2019-03-19T18:37:31.766Z,101604.40
2019-03-19T18:39:59.021Z,101605.02
2019-03-19T18:42:26.422Z,101609.31
2019-03-19T18:44:55.007Z,101618.05
2019-03-19T18:47:22.102Z,101620.73
2019-03-19T18:49:54.540Z,101628.47
2019-03-19T18:52:22.089Z,101620.86
2019-03-19T18:54:49.184Z,101627.98
2019-03-19T18:57:16.277Z,101627.67
2019-03-19T18:59:43.351Z,101629.81
2019-03-19T19:02:10.437Z,101634.85
2019-03-19T19:04:39.367Z,101635.73
2019-03-19T19:07:06.629Z,101643.91
2019-03-19T19:09:33.722Z,101644.64
2019-03-19T19:12:01.045Z,101647.56
2019-03-19T19:14:28.129Z,101644.35
2019-03-19T19:16:55.234Z,101651.62
2019-03-19T19:19:22.716Z,101655.58
2019-03-19T19:21:52.278Z,101655.86
2019-03-19T19:24:19.346Z,101659.08
2019-03-19T19:26:49.370Z,101657.93
2019-03-19T19:29:18.363Z,101658.77
2019-03-19T19:31:45.462Z,101657.20
2019-03-19T19:34:13.240Z,101662.67
2019-03-19T19:36:40.398Z,101665.79
2019-03-19T19:39:07.904Z,101659.64
2019-03-19T19:41:35.463Z,101666.73
2019-03-19T19:44:02.652Z,101661.91
2019-03-19T19:46:29.976Z,101672.52
2019-03-19T19:48:57.210Z,101675.42
2019-03-19T19:51:24.288Z,101678.70
2019-03-19T19:54:26.492Z,101676.55
2019-03-19T19:57:02.061Z,101672.73
2019-03-19T19:59:29.235Z,101669.86
2019-03-19T20:01:56.330Z,101668.94
2019-03-19T20:04:23.399Z,101673.97
2019-03-19T20:06:50.511Z,101672.09
2019-03-19T20:09:18.037Z,101669.80
2019-03-19T20:11:45.119Z,101674.52
2019-03-19T20:14:12.348Z,101677.55
2019-03-19T20:16:39.434Z,101677.11
2019-03-19T20:19:06.622Z,101680.11
2019-03-19T20:21:33.863Z,101688.31
2019-03-19T20:24:00.962Z,101692.94
2019-03-19T20:26:28.283Z,101690.17
2019-03-19T20:28:56.019Z,101694.09
2019-03-19T20:31:23.084Z,101695.66
2019-03-19T20:33:50.336Z,101702.23
2019-03-19T20:36:17.474Z,101703.52
2019-03-19T20:38:44.585Z,101698.38
2019-03-19T20:41:11.682Z,101704.28
2019-03-19T20:43:39.222Z,101704.37
2019-03-19T20:46:06.397Z,101710.87
2019-03-19T20:48:35.904Z,101709.20
2019-03-19T20:51:03.832Z,101711.16
2019-03-19T20:53:32.004Z,101717.91
2019-03-19T20:55:59.161Z,101716.78
2019-03-19T20:58:26.295Z,101718.44
2019-03-19T21:00:55.160Z,101731.12
2019-03-19T21:03:22.231Z,101728.83
2019-03-19T21:05:49.553Z,101727.49
2019-03-19T21:08:17.187Z,101736.55
2019-03-19T21:10:44.315Z,101749.98
2019-03-19T21:13:14.350Z,101754.88
2019-03-19T21:15:41.405Z,101756.34
2019-03-19T21:18:08.575Z,101757.71
2019-03-19T21:20:35.682Z,101759.55
2019-03-19T21:23:04.861Z,101753.42
2019-03-19T21:25:31.986Z,101756.42
2019-03-19T21:27:59.156Z,101759.37
2019-03-19T21:30:26.419Z,101769.12
2019-03-19T21:32:53.532Z,101771.52
2019-03-19T21:35:28.636Z,101766.33
2019-03-19T21:37:56.457Z,101771.66
2019-03-19T21:40:26.353Z,101776.25
2019-03-19T21:43:05.734Z,101777.98
2019-03-19T21:45:35.022Z,101779.83
2019-03-19T21:48:03.292Z,101778.16
2019-03-19T21:50:30.521Z,101779.41
2019-03-19T21:52:57.695Z,101772.77
2019-03-19T21:55:25.146Z,101774.02
2019-03-19T21:57:52.230Z,101779.52
2019-03-19T22:00:19.471Z,101777.84
2019-03-19T22:02:47.223Z,101786.48
2019-03-19T22:05:15.956Z,101791.16
2019-03-19T22:07:42.989Z,101797.83
2019-03-19T22:10:11.532Z,101790.26
2019-03-19T22:12:39.935Z,101791.38
2019-03-19T22:15:13.446Z,101793.08
2019-03-19T22:17:41.039Z,101796.42
2019-03-19T22:20:09.599Z,101799.02
2019-03-19T22:22:36.728Z,101801.27
2019-03-19T22:25:05.333Z,101798.59
2019-03-19T22:27:32.427Z,101800.03
2019-03-19T22:29:59.615Z,101800.41
2019-03-19T22:32:26.834Z,101812.29
2019-03-19T22:34:53.984Z,101814.43
2019-03-19T22:37:21.205Z,101815.23
2019-03-19T22:39:48.320Z,101810.48
2019-03-19T22:42:15.381Z,101813.39
2019-03-19T22:44:42.778Z,101815.03
2019-03-19T22:47:10.027Z,101815.06
2019-03-19T22:49:37.065Z,101828.38
2019-03-19T22:52:04.138Z,101818.22
2019-03-19T22:54:31.423Z,101820.80
2019-03-19T22:56:58.505Z,101821.32
2019-03-19T22:59:26.043Z,101827.42
2019-03-19T23:01:53.761Z,101831.34
2019-03-19T23:04:27.258Z,101833.91
2019-03-19T23:06:50.317Z,101837.30
2019-03-19T23:09:17.500Z,101842.83
2019-03-19T23:11:44.547Z,101845.39
2019-03-19T23:14:12.118Z,101846.25
2019-03-19T23:16:39.208Z,101852.67
2019-03-19T23:19:08.006Z,101853.08
2019-03-19T23:21:35.050Z,101856.55
2019-03-19T23:24:02.464Z,101853.13
2019-03-19T23:26:30.805Z,101858.67
2019-03-19T23:28:57.958Z,101857.83
2019-03-19T23:31:25.198Z,101861.70
2019-03-19T23:33:53.531Z,101859.58
2019-03-19T23:36:20.775Z,101865.56
2019-03-19T23:38:47.939Z,101863.42
2019-03-19T23:41:15.110Z,101862.55
2019-03-19T23:43:43.284Z,101861.72
2019-03-19T23:46:10.479Z,101856.59
2019-03-19T23:48:37.615Z,101854.46
2019-03-19T23:51:04.745Z,101854.88
2019-03-19T23:53:31.923Z,101856.56
2019-03-19T23:55:59.095Z,101860.41
2019-03-19T23:58:26.242Z,101864.27
